Time;durP1;ratioP1;P1;durP2;ratioP2;P2;SDS_P1;SDS_P2;PMS_P1;PMS_P2;Temp;Humidity;BMP_temperature;BMP_pressure;BME280_temperature;BME280_humidity;BME280_pressure;Samples;Min_cycle;Max_cycle;Signal;HPM_P1;HPM_P2
2021/11/21 00:00:50;;;;;;;10.07;2.13;;;;;;;-149.78;100.00;50463.63;5068792;28;20039;-64
2021/11/21 00:03:15;;;;;;;12.45;2.03;;;;;;;-149.78;100.00;50397.13;5068396;28;20041;-64
2021/11/21 00:05:43;;;;;;;11.25;1.98;;;;;;;-149.78;100.00;50432.31;5067143;28;20099;-64
2021/11/21 00:08:12;;;;;;;8.20;2.10;;;;;;;-149.78;100.00;50436.25;5054885;28;20056;-65
2021/11/21 00:10:38;;;;;;;13.80;2.30;;;;;;;-149.78;100.00;50416.69;5064286;28;20447;-65
2021/11/21 00:13:05;;;;;;;6.82;2.42;;;;;;;-149.78;100.00;50438.19;5066717;28;20489;-64
2021/11/21 00:15:32;;;;;;;9.95;1.95;;;;;;;-149.78;100.00;50399.09;5066245;28;20477;-64
2021/11/21 00:17:58;;;;;;;8.52;1.75;;;;;;;-149.78;100.00;50436.25;5066604;28;20107;-64
2021/11/21 00:20:24;;;;;;;11.32;1.85;;;;;;;-149.78;100.00;50459.72;5068606;28;20532;-64
2021/11/21 00:22:50;;;;;;;11.80;1.77;;;;;;;-149.78;100.00;50467.53;5047786;28;20435;-64
2021/11/21 00:25:15;;;;;;;7.75;1.63;;;;;;;-149.78;100.00;50436.25;5052092;28;20061;-64
2021/11/21 00:27:41;;;;;;;4.68;1.67;;;;;;;-149.78;100.00;50420.59;5053252;28;20090;-65
2021/11/21 00:30:08;;;;;;;7.15;1.45;;;;;;;-149.78;100.00;50463.63;5051445;28;20481;-64
2021/11/21 00:32:33;;;;;;;9.27;1.58;;;;;;;-149.78;100.00;50418.63;5053266;28;20047;-64
2021/11/21 00:34:59;;;;;;;5.10;1.38;;;;;;;-149.78;100.00;50418.63;5055008;28;20037;-64
2021/11/21 00:37:28;;;;;;;5.25;1.40;;;;;;;-149.78;100.00;50467.53;5052435;28;20087;-64
2021/11/21 00:39:53;;;;;;;7.50;1.30;;;;;;;-149.78;100.00;50447.97;5047996;28;20032;-64
2021/11/21 00:42:19;;;;;;;8.07;1.13;;;;;;;-149.78;100.00;50430.38;5047809;28;20056;-64
2021/11/21 00:44:45;;;;;;;9.70;1.45;;;;;;;-149.78;100.00;50440.16;5046885;28;20171;-64
2021/11/21 00:47:11;;;;;;;8.73;1.40;;;;;;;-149.78;100.00;50432.31;5053594;28;20432;-64
2021/11/21 00:49:38;;;;;;;5.28;1.00;;;;;;;-149.78;100.00;50451.88;5038512;28;20053;-64
2021/11/21 00:52:04;;;;;;;4.25;1.15;;;;;;;-149.78;100.00;50447.97;5050075;28;20384;-64
2021/11/21 00:57:15;;;;;;;5.28;1.48;;;;;;;-149.78;100.00;50455.81;5049442;28;20041;-64
2021/11/21 00:59:41;;;;;;;6.90;1.10;;;;;;;-149.78;100.00;50416.69;5050645;28;20041;-64
2021/11/21 01:02:09;;;;;;;7.45;1.35;;;;;;;-149.78;100.00;50438.19;5047032;28;20488;-64
2021/11/21 01:04:36;;;;;;;7.97;1.10;;;;;;;-149.78;100.00;50438.19;5050236;28;20052;-64
2021/11/21 01:07:27;;;;;;;5.00;0.90;;;;;;;-149.78;100.00;50440.16;5047073;28;20045;-64
2021/11/21 01:12:27;;;;;;;7.55;1.25;;;;;;;-149.78;100.00;50432.31;4971202;28;20425;-60
2021/11/21 01:14:53;;;;;;;6.22;1.10;;;;;;;-149.78;100.00;50447.97;4975311;28;20038;-59
2021/11/21 01:17:19;;;;;;;4.38;1.05;;;;;;;-149.78;100.00;50408.84;4983145;28;20093;-59
2021/11/21 01:19:44;;;;;;;5.78;1.25;;;;;;;-149.78;100.00;50432.31;4981077;28;20049;-59
2021/11/21 01:22:11;;;;;;;2.83;0.90;;;;;;;-149.78;100.00;50459.72;4980094;28;20053;-61
2021/11/21 01:24:36;;;;;;;3.53;0.90;;;;;;;-149.78;100.00;50459.72;4973077;28;20039;-60
2021/11/21 01:27:02;;;;;;;1.55;1.00;;;;;;;-149.78;100.00;50447.97;4975208;28;20078;-59
2021/11/21 01:29:28;;;;;;;2.33;0.90;;;;;;;-149.78;100.00;50447.97;4984897;28;20034;-59
2021/11/21 01:31:53;;;;;;;2.47;0.80;;;;;;;-149.78;100.00;50428.41;4974768;28;20039;-60
2021/11/21 01:34:19;;;;;;;4.32;1.10;;;;;;;-149.78;100.00;50440.16;4973638;28;20042;-60
2021/11/21 01:36:45;;;;;;;3.83;0.77;;;;;;;-149.78;100.00;50451.88;4975088;28;20058;-59
2021/11/21 01:39:11;;;;;;;6.65;1.10;;;;;;;-149.78;100.00;50467.53;4975395;28;20110;-59
2021/11/21 01:41:37;;;;;;;3.60;1.13;;;;;;;-149.78;100.00;50491.00;4986997;28;20101;-60
2021/11/21 01:44:07;;;;;;;5.32;0.70;;;;;;;-149.78;100.00;50444.06;4974590;28;20039;-60
2021/11/21 01:46:39;;;;;;;4.78;0.80;;;;;;;-149.78;100.00;50416.69;4973884;28;20035;-59
2021/11/21 01:49:05;;;;;;;4.07;0.88;;;;;;;-149.78;100.00;50428.41;4974899;28;20117;-59
2021/11/21 01:51:31;;;;;;;6.13;0.85;;;;;;;-149.78;100.00;50424.50;4984816;28;20448;-59
2021/11/21 01:53:57;;;;;;;3.45;1.13;;;;;;;-149.78;100.00;50436.25;4985546;28;20500;-59
2021/11/21 01:56:26;;;;;;;4.28;0.98;;;;;;;-149.78;100.00;50475.34;4980149;28;20034;-59
2021/11/21 01:58:55;;;;;;;5.75;0.90;;;;;;;-149.78;100.00;50440.16;4981023;28;20039;-61
2021/11/21 02:01:22;;;;;;;6.90;1.23;;;;;;;-149.78;100.00;50440.16;4960083;28;20028;-59
2021/11/21 02:03:48;;;;;;;3.08;0.93;;;;;;;-149.78;100.00;50440.16;4981590;28;20121;-59
2021/11/21 02:06:13;;;;;;;3.75;0.70;;;;;;;-149.78;100.00;50432.31;4965724;28;20081;-62
2021/11/21 02:08:39;;;;;;;4.38;0.73;;;;;;;-149.78;100.00;50428.41;4974325;28;20105;-59
2021/11/21 02:11:06;;;;;;;4.47;0.90;;;;;;;-149.78;100.00;50430.38;4971967;28;20137;-59
2021/11/21 02:13:32;;;;;;;7.90;1.00;;;;;;;-149.78;100.00;50447.97;4973995;28;20117;-59
2021/11/21 02:16:00;;;;;;;4.20;0.80;;;;;;;-149.78;100.00;50451.88;4971866;28;20023;-59
2021/11/21 02:18:26;;;;;;;9.68;2.00;;;;;;;-149.78;100.00;50432.31;4974036;28;20508;-60
2021/11/21 02:20:55;;;;;;;2.97;1.00;;;;;;;-149.78;100.00;50457.75;4985230;28;20470;-59
2021/11/21 02:23:23;;;;;;;8.90;1.20;;;;;;;-149.78;100.00;50469.50;4973255;28;20039;-59
2021/11/21 02:25:49;;;;;;;3.50;0.90;;;;;;;-149.78;100.00;50487.09;4973250;28;20050;-60
2021/11/21 02:28:16;;;;;;;5.68;0.85;;;;;;;-149.78;100.00;50440.16;4973645;28;20030;-59
2021/11/21 02:30:42;;;;;;;3.83;0.93;;;;;;;-149.78;100.00;50485.13;4972526;28;20022;-62
2021/11/21 02:33:11;;;;;;;8.30;0.95;;;;;;;-149.78;100.00;50467.53;4973766;28;20034;-62
2021/11/21 02:35:43;;;;;;;7.68;0.73;;;;;;;-149.78;100.00;50479.28;4972394;28;20038;-59
2021/11/21 02:38:11;;;;;;;5.55;1.08;;;;;;;-149.78;100.00;50481.22;4973565;28;20392;-59
2021/11/21 02:40:37;;;;;;;2.38;0.63;;;;;;;-149.78;100.00;50467.53;4972744;28;20050;-59
2021/11/21 02:43:03;;;;;;;7.85;1.08;;;;;;;-149.78;100.00;50471.44;4974042;28;20106;-59
2021/11/21 02:45:29;;;;;;;5.88;1.13;;;;;;;-149.78;100.00;50475.34;4970589;28;20707;-62
2021/11/21 02:47:55;;;;;;;2.63;0.80;;;;;;;-149.78;100.00;50508.59;4972753;28;20043;-60
2021/11/21 02:50:23;;;;;;;3.75;0.95;;;;;;;-149.78;100.00;50479.28;4973593;28;20545;-59
2021/11/21 02:52:50;;;;;;;5.88;0.95;;;;;;;-149.78;100.00;50479.28;4961218;28;20039;-59
2021/11/21 02:55:18;;;;;;;3.05;1.35;;;;;;;-149.78;100.00;50465.56;4973750;28;20054;-60
2021/11/21 02:57:45;;;;;;;5.38;0.75;;;;;;;-149.78;100.00;50455.81;4971240;28;20026;-59
2021/11/21 03:00:14;;;;;;;3.28;0.77;;;;;;;-149.78;100.00;50459.72;4972229;28;20034;-59
2021/11/21 03:02:41;;;;;;;10.05;1.35;;;;;;;-149.78;100.00;50463.63;4973206;28;20058;-60
2021/11/21 03:05:07;;;;;;;3.80;0.80;;;;;;;-149.78;100.00;50475.34;4971590;28;20035;-59
2021/11/21 03:07:32;;;;;;;7.30;0.93;;;;;;;-149.78;100.00;50455.81;4964503;28;20046;-60
2021/11/21 03:09:58;;;;;;;7.55;1.38;;;;;;;-149.78;100.00;50491.00;4975962;28;20059;-59
2021/11/21 03:12:24;;;;;;;6.60;1.05;;;;;;;-149.78;100.00;50412.78;4972305;28;20046;-59
2021/11/21 03:14:52;;;;;;;7.65;1.08;;;;;;;-149.78;100.00;50420.59;4970126;28;20066;-60
2021/11/21 03:17:19;;;;;;;9.63;0.75;;;;;;;-149.78;100.00;50467.53;4972345;28;20031;-59
2021/11/21 03:19:45;;;;;;;3.05;1.02;;;;;;;-149.78;100.00;50506.66;4982828;28;20133;-60
2021/11/21 03:22:14;;;;;;;8.35;1.20;;;;;;;-149.78;100.00;50500.78;4987884;28;20153;-60
2021/11/21 03:24:42;;;;;;;7.95;0.80;;;;;;;-149.78;100.00;50487.09;4981168;28;20065;-60
2021/11/21 03:27:09;;;;;;;6.63;0.95;;;;;;;-149.78;100.00;50455.81;4977733;28;20031;-60
2021/11/21 03:29:34;;;;;;;3.35;0.65;;;;;;;-149.78;100.00;50479.28;4985543;28;20034;-60
2021/11/21 03:32:00;;;;;;;10.00;1.23;;;;;;;-149.78;100.00;50491.00;4993134;28;20571;-60
2021/11/21 03:34:26;;;;;;;4.25;1.00;;;;;;;-149.78;100.00;50510.56;4969730;28;20035;-60
2021/11/21 03:36:53;;;;;;;5.55;1.10;;;;;;;-149.78;100.00;50471.44;4963525;28;20113;-60
2021/11/21 03:39:19;;;;;;;12.50;1.40;;;;;;;-149.78;100.00;50483.19;4998568;28;20042;-60
2021/11/21 03:41:44;;;;;;;6.05;0.90;;;;;;;-149.78;100.00;50469.50;4974945;28;20031;-62
2021/11/21 03:44:10;;;;;;;6.57;0.98;;;;;;;-149.78;100.00;50440.16;4971882;28;20054;-63
2021/11/21 03:46:37;;;;;;;5.70;0.95;;;;;;;-149.78;100.00;50465.56;4969482;28;20093;-60
2021/11/21 03:49:05;;;;;;;3.67;1.77;;;;;;;-149.78;100.00;50498.81;4974643;28;20062;-60
2021/11/21 03:51:31;;;;;;;10.57;1.30;;;;;;;-149.78;100.00;50487.09;4972950;28;20433;-60
2021/11/21 03:53:58;;;;;;;7.15;1.00;;;;;;;-149.78;100.00;50494.91;4970127;28;22093;-60
2021/11/21 03:56:24;;;;;;;3.13;0.70;;;;;;;-149.78;100.00;50479.28;4972785;28;20085;-60
2021/11/21 03:58:50;;;;;;;6.47;0.88;;;;;;;-149.78;100.00;50471.44;4978819;28;20031;-60
2021/11/21 04:01:16;;;;;;;4.57;0.88;;;;;;;-149.78;100.00;50463.63;4976136;28;20034;-60
2021/11/21 04:03:43;;;;;;;3.40;0.77;;;;;;;-149.78;100.00;50428.41;4968900;28;20089;-60
2021/11/21 04:06:09;;;;;;;5.63;1.08;;;;;;;-149.78;100.00;50467.53;4976777;28;20039;-60
2021/11/21 04:08:35;;;;;;;8.15;0.90;;;;;;;-149.78;100.00;50504.69;4973256;28;20060;-60
2021/11/21 04:11:01;;;;;;;6.65;1.00;;;;;;;-149.78;100.00;50465.56;4976677;28;20482;-60
2021/11/21 04:13:27;;;;;;;3.15;0.73;;;;;;;-149.78;100.00;50438.19;4974075;28;20042;-60
2021/11/21 04:15:53;;;;;;;4.93;0.98;;;;;;;-149.78;100.00;50455.81;4976410;28;20042;-60
2021/11/21 04:18:19;;;;;;;4.15;0.88;;;;;;;-149.78;100.00;50463.63;4975869;28;20038;-60
2021/11/21 04:20:45;;;;;;;4.55;1.10;;;;;;;-149.78;100.00;50498.81;4976082;28;20030;-60
2021/11/21 04:23:11;;;;;;;3.67;0.70;;;;;;;-149.78;100.00;50475.34;4976644;28;20026;-60
2021/11/21 04:25:37;;;;;;;3.90;1.08;;;;;;;-149.78;100.00;50475.34;4977154;28;20035;-60
2021/11/21 04:28:03;;;;;;;6.13;0.98;;;;;;;-149.78;100.00;50444.06;4973192;28;20050;-60
2021/11/21 04:30:29;;;;;;;5.82;0.95;;;;;;;-149.78;100.00;50447.97;4970654;28;20050;-60
2021/11/21 04:32:54;;;;;;;5.07;0.95;;;;;;;-149.78;100.00;50483.19;4975631;28;20035;-60
2021/11/21 04:35:20;;;;;;;5.70;1.00;;;;;;;-149.78;100.00;50479.28;4975392;28;20089;-60
2021/11/21 04:37:47;;;;;;;4.50;1.08;;;;;;;-149.78;100.00;50483.19;4968821;28;20039;-60
2021/11/21 04:40:14;;;;;;;1.55;0.55;;;;;;;-149.78;100.00;50455.81;4977173;28;20034;-60
2021/11/21 04:42:40;;;;;;;4.88;1.48;;;;;;;-149.78;100.00;50459.72;4974395;28;20102;-60
2021/11/21 04:45:07;;;;;;;3.72;0.80;;;;;;;-149.78;100.00;50498.81;4979414;28;20498;-60
2021/11/21 04:47:33;;;;;;;1.42;0.75;;;;;;;-149.78;100.00;50467.53;4974791;28;20088;-60
2021/11/21 04:49:58;;;;;;;4.32;0.80;;;;;;;-149.78;100.00;50465.56;4973010;28;20121;-60
2021/11/21 04:52:24;;;;;;;7.18;1.20;;;;;;;-149.78;100.00;50541.84;4981743;28;20047;-60
2021/11/21 04:54:49;;;;;;;4.53;1.20;;;;;;;-149.78;100.00;50432.31;4975027;28;20042;-60
2021/11/21 04:57:16;;;;;;;4.13;0.95;;;;;;;-149.78;100.00;50432.31;4976281;28;20035;-60
2021/11/21 04:59:42;;;;;;;3.72;0.60;;;;;;;-149.78;100.00;50471.44;4974602;28;20122;-60
2021/11/21 05:02:07;;;;;;;10.20;1.20;;;;;;;-149.78;100.00;50467.53;4977889;28;20130;-60
2021/11/21 05:04:34;;;;;;;4.85;0.82;;;;;;;-149.78;100.00;50467.53;4976398;28;20433;-60
2021/11/21 05:07:00;;;;;;;3.17;1.13;;;;;;;-149.78;100.00;50467.53;4976638;28;20086;-61
2021/11/21 05:09:26;;;;;;;5.72;0.82;;;;;;;-149.78;100.00;50510.56;4970892;28;20374;-60
2021/11/21 05:11:52;;;;;;;4.03;0.80;;;;;;;-149.78;100.00;50447.97;4969982;28;20109;-60
2021/11/21 05:14:19;;;;;;;1.73;0.70;;;;;;;-149.78;100.00;50494.91;4974707;28;20061;-60
2021/11/21 05:16:45;;;;;;;6.03;0.95;;;;;;;-149.78;100.00;50436.25;4975483;28;20043;-60
2021/11/21 05:19:11;;;;;;;3.47;0.80;;;;;;;-149.78;100.00;50494.91;4976570;28;20031;-60
2021/11/21 05:21:37;;;;;;;1.48;0.73;;;;;;;-149.78;100.00;50467.53;4974779;28;20033;-60
2021/11/21 05:24:03;;;;;;;4.53;0.88;;;;;;;-149.78;100.00;50483.19;4975705;28;20034;-60
2021/11/21 05:26:28;;;;;;;3.60;0.90;;;;;;;-149.78;100.00;50487.09;4974035;28;20062;-60
2021/11/21 05:28:55;;;;;;;2.53;0.75;;;;;;;-149.78;100.00;50459.72;4975718;28;20576;-60
2021/11/21 05:31:21;;;;;;;6.35;1.10;;;;;;;-149.78;100.00;50481.22;4974243;28;20110;-60
2021/11/21 05:33:48;;;;;;;5.80;0.80;;;;;;;-149.78;100.00;50453.84;4975564;28;20049;-60
2021/11/21 05:36:14;;;;;;;4.50;0.80;;;;;;;-149.78;100.00;50469.50;4974165;28;20030;-60
2021/11/21 05:38:40;;;;;;;3.70;0.82;;;;;;;-149.78;100.00;50432.31;4974121;28;20029;-60
2021/11/21 05:41:06;;;;;;;3.10;1.17;;;;;;;-149.78;100.00;50467.53;4973543;28;20030;-60
2021/11/21 05:43:32;;;;;;;7.32;0.80;;;;;;;-149.78;100.00;50467.53;4974243;28;20031;-60
2021/11/21 05:45:58;;;;;;;4.28;0.80;;;;;;;-149.78;100.00;50487.09;4989174;28;20034;-60
2021/11/21 05:48:24;;;;;;;5.18;0.70;;;;;;;-149.78;100.00;50440.16;4972638;28;20035;-60
2021/11/21 05:50:49;;;;;;;6.63;1.65;;;;;;;-149.78;100.00;50453.84;4974958;28;20045;-60
2021/11/21 05:53:15;;;;;;;4.78;0.80;;;;;;;-149.78;100.00;50447.97;4974300;28;20058;-60
2021/11/21 05:55:41;;;;;;;1.55;0.70;;;;;;;-149.78;100.00;50459.72;4971393;28;20117;-61
2021/11/21 05:58:07;;;;;;;5.10;0.68;;;;;;;-149.78;100.00;50440.16;4973927;28;20195;-61
2021/11/21 06:00:33;;;;;;;3.47;0.60;;;;;;;-149.78;100.00;50479.28;4973069;28;20031;-60
2021/11/21 06:02:59;;;;;;;2.90;1.25;;;;;;;-149.78;100.00;50440.16;4974232;28;20433;-61
2021/11/21 06:05:25;;;;;;;2.85;0.52;;;;;;;-149.78;100.00;50467.53;4972516;28;20086;-61
2021/11/21 06:07:50;;;;;;;3.35;0.75;;;;;;;-149.78;100.00;50467.53;4974699;28;20042;-61
2021/11/21 06:10:16;;;;;;;3.97;0.60;;;;;;;-149.78;100.00;50492.97;4973107;28;20050;-60
2021/11/21 06:12:42;;;;;;;1.15;0.50;;;;;;;-149.78;100.00;50463.63;4959195;28;20054;-60
2021/11/21 06:15:10;;;;;;;6.88;0.90;;;;;;;-149.78;100.00;50475.34;4973859;28;20042;-60
2021/11/21 06:17:36;;;;;;;5.18;0.60;;;;;;;-149.78;100.00;50475.34;4984954;28;20070;-60
2021/11/21 06:20:03;;;;;;;1.92;0.80;;;;;;;-149.78;100.00;50479.28;4972845;28;20023;-60
2021/11/21 06:22:30;;;;;;;4.60;1.02;;;;;;;-149.78;100.00;50500.78;4973780;28;20042;-60
2021/11/21 06:24:56;;;;;;;4.90;0.57;;;;;;;-149.78;100.00;50440.16;4974336;28;20035;-60
2021/11/21 06:27:22;;;;;;;1.52;0.70;;;;;;;-149.78;100.00;50457.75;4972127;28;20065;-60
2021/11/21 06:29:47;;;;;;;6.43;0.70;;;;;;;-149.78;100.00;50475.34;4972981;28;20046;-60
2021/11/21 06:32:15;;;;;;;3.35;0.60;;;;;;;-149.78;100.00;50467.53;4975582;28;20105;-60
2021/11/21 06:34:40;;;;;;;2.15;0.60;;;;;;;-149.78;100.00;50459.72;4973200;28;20546;-60
2021/11/21 06:37:08;;;;;;;2.28;0.75;;;;;;;-149.78;100.00;50477.31;4974895;28;20045;-61
2021/11/21 06:39:35;;;;;;;2.58;0.77;;;;;;;-149.78;100.00;50487.09;4972898;28;20035;-60
2021/11/21 06:42:01;;;;;;;1.52;0.77;;;;;;;-149.78;100.00;50463.63;4971981;28;20057;-60
2021/11/21 06:44:27;;;;;;;1.10;0.40;;;;;;;-149.78;100.00;50447.97;4970374;28;20034;-60
2021/11/21 06:46:52;;;;;;;0.57;0.57;;;;;;;-149.78;100.00;50426.47;4973610;28;20034;-60
2021/11/21 06:49:18;;;;;;;5.15;0.77;;;;;;;-149.78;100.00;50498.81;4973936;28;20038;-60
2021/11/21 06:51:44;;;;;;;2.15;0.70;;;;;;;-149.78;100.00;50475.34;4974747;28;20035;-60
2021/11/21 06:54:11;;;;;;;5.10;0.73;;;;;;;-149.78;100.00;50459.72;4973292;28;20097;-60
2021/11/21 06:56:37;;;;;;;1.23;0.43;;;;;;;-149.78;100.00;50467.53;4972709;28;20101;-60
2021/11/21 06:59:04;;;;;;;1.52;0.60;;;;;;;-149.78;100.00;50451.88;4973982;28;20133;-60
2021/11/21 07:01:32;;;;;;;4.80;0.80;;;;;;;-149.78;100.00;50444.06;4968959;28;20030;-60
2021/11/21 07:03:57;;;;;;;1.23;0.60;;;;;;;-149.78;100.00;50447.97;4989082;28;20035;-60
2021/11/21 07:06:33;;;;;;;4.32;0.68;;;;;;;-149.78;100.00;50510.56;4973503;28;20049;-60
2021/11/21 07:09:00;;;;;;;1.77;0.55;;;;;;;-149.78;100.00;50487.09;4972561;28;20031;-60
2021/11/21 07:11:26;;;;;;;2.33;0.80;;;;;;;-149.78;100.00;50432.31;4973390;28;20097;-60
2021/11/21 07:13:51;;;;;;;0.55;0.50;;;;;;;-149.78;100.00;50475.34;4972054;28;20043;-60
2021/11/21 07:16:17;;;;;;;1.73;0.63;;;;;;;-149.78;100.00;50471.44;4971421;28;20537;-60
2021/11/21 07:18:43;;;;;;;2.65;0.50;;;;;;;-149.78;100.00;50459.72;4977465;28;20035;-60
2021/11/21 07:21:08;;;;;;;1.60;0.50;;;;;;;-149.78;100.00;50447.97;4972284;28;20433;-61
2021/11/21 07:23:34;;;;;;;7.53;0.55;;;;;;;-149.78;100.00;50463.63;4971526;28;20042;-61
2021/11/21 07:26:01;;;;;;;5.82;0.60;;;;;;;-149.78;100.00;50451.88;4970673;28;20496;-60
2021/11/21 07:28:26;;;;;;;1.40;0.65;;;;;;;-149.78;100.00;50440.16;4972227;28;20406;-60
2021/11/21 07:30:52;;;;;;;1.50;0.70;;;;;;;-149.78;100.00;50475.34;4970584;28;20031;-61
2021/11/21 07:33:18;;;;;;;8.05;1.65;;;;;;;-149.78;100.00;50475.34;4975846;28;20035;-60
2021/11/21 07:35:44;;;;;;;3.75;0.80;;;;;;;-149.78;100.00;50473.41;4976712;28;20067;-60
2021/11/21 07:38:09;;;;;;;2.03;0.80;;;;;;;-149.78;100.00;50447.97;4978880;28;20042;-62
2021/11/21 07:40:35;;;;;;;7.47;0.70;;;;;;;-149.78;100.00;50447.97;4975995;28;20034;-61
2021/11/21 07:43:01;;;;;;;1.48;0.50;;;;;;;-149.78;100.00;50500.78;4979293;28;20481;-61
2021/11/21 07:45:27;;;;;;;3.97;0.93;;;;;;;-149.78;100.00;50471.44;4976884;28;20492;-61
2021/11/21 07:47:53;;;;;;;5.40;0.60;;;;;;;-149.78;100.00;50494.91;4975633;28;20030;-61
2021/11/21 07:50:19;;;;;;;3.72;1.00;;;;;;;-149.78;100.00;50444.06;4974952;28;20035;-60
2021/11/21 07:52:45;;;;;;;2.42;0.57;;;;;;;-149.78;100.00;50487.09;4975873;28;20548;-60
2021/11/21 07:55:12;;;;;;;3.25;0.80;;;;;;;-149.78;100.00;50487.09;4974144;28;20027;-60
2021/11/21 07:57:38;;;;;;;4.20;0.73;;;;;;;-149.78;100.00;50491.00;4974594;28;20390;-60
2021/11/21 08:00:07;;;;;;;3.38;0.70;;;;;;;-149.78;100.00;50471.44;4976888;28;20053;-60
2021/11/21 08:02:32;;;;;;;6.07;0.65;;;;;;;-149.78;100.00;50475.34;4979791;28;20378;-60
2021/11/21 08:04:58;;;;;;;5.30;0.80;;;;;;;-149.78;100.00;50498.81;4975579;28;20035;-60
2021/11/21 08:07:23;;;;;;;3.70;0.80;;;;;;;-149.78;100.00;50483.19;4975013;28;20037;-60
2021/11/21 08:09:49;;;;;;;3.83;0.60;;;;;;;-149.78;100.00;50455.81;4976890;28;20490;-61
2021/11/21 08:12:16;;;;;;;2.80;0.90;;;;;;;-149.78;100.00;50471.44;4977354;28;20055;-59
2021/11/21 08:14:41;;;;;;;5.32;0.82;;;;;;;-149.78;100.00;50502.75;4973714;28;20035;-60
2021/11/21 08:17:07;;;;;;;2.78;0.70;;;;;;;-149.78;100.00;50518.38;4975546;28;20069;-60
2021/11/21 08:19:33;;;;;;;3.83;0.70;;;;;;;-149.78;100.00;50498.81;4978356;28;20086;-59
2021/11/21 08:21:59;;;;;;;4.00;0.77;;;;;;;-149.78;100.00;50475.34;4978779;28;20030;-60
2021/11/21 08:24:25;;;;;;;3.38;0.90;;;;;;;-149.78;100.00;50494.91;4976645;28;20355;-60
2021/11/21 08:26:51;;;;;;;6.65;0.60;;;;;;;-149.78;100.00;50475.34;4980754;28;20455;-60
2021/11/21 08:29:16;;;;;;;1.70;0.43;;;;;;;-149.78;100.00;50463.63;4986368;28;20035;-60
2021/11/21 08:31:43;;;;;;;2.78;0.63;;;;;;;-149.78;100.00;50471.44;4985430;28;20493;-61
2021/11/21 08:34:09;;;;;;;2.75;0.80;;;;;;;-149.78;100.00;50483.19;4981322;28;20049;-60
2021/11/21 08:36:35;;;;;;;1.75;0.50;;;;;;;-149.78;100.00;50453.84;4977440;28;20419;-60
2021/11/21 08:39:02;;;;;;;4.90;0.70;;;;;;;-149.78;100.00;50471.44;4975920;28;20031;-61
2021/11/21 08:41:27;;;;;;;2.33;0.65;;;;;;;-149.78;100.00;50459.72;4975888;28;20034;-61
2021/11/21 08:43:53;;;;;;;5.57;0.65;;;;;;;-149.78;100.00;50467.53;4988146;28;20031;-61
2021/11/21 08:46:18;;;;;;;3.17;0.63;;;;;;;-149.78;100.00;50485.13;4976473;28;20034;-61
2021/11/21 08:48:45;;;;;;;5.00;1.00;;;;;;;-149.78;100.00;50475.34;4980726;28;20064;-61
2021/11/21 08:51:11;;;;;;;1.75;0.57;;;;;;;-149.78;100.00;50461.66;4978411;28;20494;-61
2021/11/21 08:53:37;;;;;;;3.47;0.55;;;;;;;-149.78;100.00;50440.16;4981039;28;20094;-61
2021/11/21 08:56:04;;;;;;;2.33;0.63;;;;;;;-149.78;100.00;50455.81;4983370;28;20030;-61
2021/11/21 08:58:29;;;;;;;5.28;0.75;;;;;;;-149.78;100.00;50451.88;4980595;28;20057;-61
2021/11/21 09:00:55;;;;;;;0.82;0.50;;;;;;;-149.78;100.00;50471.44;4981459;28;20458;-61
2021/11/21 09:03:21;;;;;;;8.15;0.70;;;;;;;-149.78;100.00;50475.34;4979067;28;20035;-61
2021/11/21 09:05:47;;;;;;;2.60;0.60;;;;;;;-149.78;100.00;50467.53;4980333;28;20490;-61
2021/11/21 09:08:14;;;;;;;3.92;0.75;;;;;;;-149.78;100.00;50463.63;4988503;28;20038;-61
2021/11/21 09:10:40;;;;;;;2.08;0.73;;;;;;;-149.78;100.00;50461.66;4974304;28;20038;-60
2021/11/21 09:13:06;;;;;;;4.57;0.93;;;;;;;-149.78;100.00;50492.97;4973327;28;20086;-61
2021/11/21 09:15:33;;;;;;;7.00;1.88;;;;;;;-149.78;100.00;50487.09;4973936;28;20054;-61
2021/11/21 09:17:58;;;;;;;3.72;0.73;;;;;;;-149.78;100.00;50481.22;4979741;28;20105;-61
2021/11/21 09:20:25;;;;;;;3.10;0.75;;;;;;;-149.78;100.00;50440.16;4983260;28;20093;-61
2021/11/21 09:22:52;;;;;;;1.25;0.50;;;;;;;-149.78;100.00;50463.63;4974507;28;20494;-61
2021/11/21 09:25:21;;;;;;;1.27;0.70;;;;;;;-149.78;100.00;50491.00;4972328;28;20043;-61
2021/11/21 09:27:46;;;;;;;2.90;0.88;;;;;;;-149.78;100.00;50459.72;4983529;28;20505;-61
2021/11/21 09:30:13;;;;;;;3.13;0.70;;;;;;;-149.78;100.00;50467.53;4980406;28;20039;-61
2021/11/21 09:32:40;;;;;;;1.85;0.80;;;;;;;-149.78;100.00;50465.56;4979716;28;20034;-61
2021/11/21 09:35:08;;;;;;;4.90;0.55;;;;;;;-149.78;100.00;50451.88;4980598;28;20081;-61
2021/11/21 09:37:33;;;;;;;6.32;0.80;;;;;;;-149.78;100.00;50487.09;4980784;28;20042;-60
2021/11/21 09:39:59;;;;;;;6.28;1.20;;;;;;;-149.78;100.00;50471.44;4977200;28;20042;-60
2021/11/21 09:42:25;;;;;;;1.88;0.73;;;;;;;-149.78;100.00;50475.34;4980282;28;20085;-61
2021/11/21 09:44:50;;;;;;;2.20;0.52;;;;;;;-149.78;100.00;50471.44;4984974;28;20035;-60
2021/11/21 09:47:17;;;;;;;2.47;0.60;;;;;;;-149.78;100.00;50471.44;4985477;28;20450;-61
2021/11/21 09:49:42;;;;;;;9.85;0.70;;;;;;;-149.78;100.00;50451.88;4976742;28;20050;-61
2021/11/21 09:52:12;;;;;;;4.65;0.93;;;;;;;-149.78;100.00;50453.84;4974391;28;20035;-61
2021/11/21 09:54:38;;;;;;;3.13;0.63;;;;;;;-149.78;100.00;50455.81;4972311;28;20039;-61
2021/11/21 09:57:04;;;;;;;5.55;0.88;;;;;;;-149.78;100.00;50494.91;4974245;28;20398;-60
2021/11/21 09:59:59;;;;;;;2.97;0.57;;;;;;;-149.78;100.00;50463.63;4971937;28;20123;-60
2021/11/21 10:02:30;;;;;;;3.72;1.30;;;;;;;-149.78;100.00;50453.84;4980034;28;20023;-61
2021/11/21 10:05:02;;;;;;;2.23;0.63;;;;;;;-149.78;100.00;50492.97;4976656;28;20584;-61
2021/11/21 10:07:34;;;;;;;3.88;0.70;;;;;;;-149.78;100.00;50459.72;4967606;28;20482;-60
2021/11/21 10:10:03;;;;;;;2.47;0.93;;;;;;;-149.78;100.00;50440.16;4974863;28;20077;-61
2021/11/21 10:12:37;;;;;;;3.88;0.70;;;;;;;-149.78;100.00;50491.00;4978147;28;20085;-61
2021/11/21 10:15:10;;;;;;;3.92;0.75;;;;;;;-149.78;100.00;50455.81;4972431;28;20492;-60
2021/11/21 10:17:39;;;;;;;4.43;0.90;;;;;;;-149.78;100.00;50463.63;4977301;28;20177;-63
2021/11/21 10:20:22;;;;;;;4.35;0.80;;;;;;;-149.78;100.00;50447.97;4976512;28;20041;-61
2021/11/21 10:22:54;;;;;;;3.15;0.68;;;;;;;-149.78;100.00;50467.53;4973400;28;20089;-61
2021/11/21 10:25:36;;;;;;;3.25;0.68;;;;;;;-149.78;100.00;50447.97;4976299;28;20026;-61
2021/11/21 10:28:06;;;;;;;2.85;0.95;;;;;;;-149.78;100.00;50467.53;4974198;28;20109;-61
2021/11/21 10:30:32;;;;;;;4.00;0.90;;;;;;;-149.78;100.00;50467.53;4973433;28;20035;-60
2021/11/21 10:33:05;;;;;;;3.00;0.90;;;;;;;-149.78;100.00;50477.31;4971310;28;20043;-60
2021/11/21 10:35:33;;;;;;;4.07;0.70;;;;;;;-149.78;100.00;50471.44;4976042;28;20046;-60
2021/11/21 10:37:59;;;;;;;3.45;0.65;;;;;;;-149.78;100.00;50471.44;4976362;28;20033;-60
2021/11/21 10:40:26;;;;;;;8.77;0.70;;;;;;;-149.78;100.00;50414.72;4975615;28;20034;-61
2021/11/21 10:42:52;;;;;;;3.45;0.93;;;;;;;-149.78;100.00;50444.06;4973797;28;20041;-60
2021/11/21 10:45:26;;;;;;;4.22;0.80;;;;;;;-149.78;100.00;50467.53;4973366;28;20061;-60
2021/11/21 10:47:58;;;;;;;5.22;0.77;;;;;;;-149.78;100.00;50438.19;4966493;28;20046;-60
2021/11/21 10:50:32;;;;;;;3.50;0.90;;;;;;;-149.78;100.00;50399.09;4975477;28;20486;-60
2021/11/21 10:53:02;;;;;;;1.33;0.60;;;;;;;-149.78;100.00;50455.81;4988024;28;20027;-60
2021/11/21 10:55:28;;;;;;;5.20;1.00;;;;;;;-149.78;100.00;50459.72;4988936;28;20126;-61
2021/11/21 10:57:53;;;;;;;3.15;1.10;;;;;;;-149.78;100.00;50436.25;4976026;28;20429;-60
2021/11/21 11:00:27;;;;;;;2.45;0.70;;;;;;;-149.78;100.00;50451.88;4972481;28;20031;-60
2021/11/21 11:02:53;;;;;;;2.88;0.80;;;;;;;-149.78;100.00;50447.97;4966734;28;20106;-61
2021/11/21 11:05:21;;;;;;;1.38;0.68;;;;;;;-149.78;100.00;50467.53;4971836;28;20042;-60
2021/11/21 11:07:47;;;;;;;3.55;0.80;;;;;;;-149.78;100.00;50436.25;4974009;28;20045;-60
2021/11/21 11:10:14;;;;;;;4.28;0.73;;;;;;;-149.78;100.00;50449.94;4973105;28;20046;-60
2021/11/21 11:12:43;;;;;;;2.88;0.70;;;;;;;-149.78;100.00;50412.78;4971666;28;20068;-60